createdAt,value
2023-02-22T00:00:43.095Z,7.83
2023-02-22T00:03:15.972Z,7.75
2023-02-22T00:05:47.603Z,7.79
2023-02-22T00:08:19.455Z,7.80
2023-02-22T00:10:53.980Z,7.86
2023-02-22T00:13:25.483Z,7.78
2023-02-22T00:15:57.005Z,7.69
2023-02-22T00:18:28.883Z,7.65
2023-02-22T00:21:00.417Z,7.69
2023-02-22T00:23:32.331Z,7.65
2023-02-22T00:26:03.850Z,7.60
2023-02-22T00:28:35.928Z,7.63
2023-02-22T00:31:07.431Z,7.53
2023-02-22T00:33:39.125Z,7.51
2023-02-22T00:36:10.910Z,7.43
2023-02-22T00:38:42.930Z,7.39
2023-02-22T00:41:14.868Z,7.46
2023-02-22T00:43:47.015Z,7.43
2023-02-22T00:46:18.549Z,7.42
2023-02-22T00:48:50.069Z,7.37
2023-02-22T00:51:21.681Z,7.37
2023-02-22T00:53:53.540Z,7.36
2023-02-22T00:56:25.077Z,7.32
2023-02-22T00:58:56.985Z,7.25
2023-02-22T01:01:28.567Z,7.19
2023-02-22T01:04:00.379Z,7.11
2023-02-22T01:06:31.984Z,7.13
2023-02-22T01:09:03.761Z,7.12
2023-02-22T01:11:35.256Z,6.30
2023-02-22T01:14:09.958Z,7.15
2023-02-22T01:16:41.539Z,7.16
2023-02-22T01:19:13.104Z,7.10
2023-02-22T01:21:44.639Z,7.08
2023-02-22T01:24:16.742Z,7.07
2023-02-22T01:26:48.253Z,7.08
2023-02-22T01:29:21.451Z,7.15
2023-02-22T01:31:54.501Z,7.12
2023-02-22T01:34:26.193Z,7.05
2023-02-22T01:36:58.495Z,6.96
2023-02-22T01:39:30.023Z,6.93
2023-02-22T01:42:01.765Z,6.85
2023-02-22T01:44:33.522Z,6.77
2023-02-22T01:47:05.032Z,6.77
2023-02-22T01:49:36.968Z,6.78
2023-02-22T01:52:08.846Z,6.72
2023-02-22T01:54:40.708Z,6.77
2023-02-22T01:57:12.218Z,6.71
2023-02-22T01:59:44.007Z,6.62
2023-02-22T02:02:15.566Z,6.59
2023-02-22T02:04:47.095Z,6.45
2023-02-22T02:07:18.646Z,6.47
2023-02-22T02:09:50.486Z,6.51
2023-02-22T02:12:23.334Z,6.49
2023-02-22T02:14:55.253Z,6.53
2023-02-22T02:17:26.746Z,6.49
2023-02-22T02:19:59.596Z,6.46
2023-02-22T02:22:31.110Z,6.43
2023-02-22T02:25:05.377Z,6.42
2023-02-22T02:27:36.933Z,6.37
2023-02-22T02:30:08.849Z,6.31
2023-02-22T02:32:40.483Z,6.27
2023-02-22T02:35:12.121Z,6.25
2023-02-22T02:37:43.613Z,6.25
2023-02-22T02:40:18.137Z,6.23
2023-02-22T02:42:49.633Z,6.20
2023-02-22T02:45:21.510Z,6.15
2023-02-22T02:47:53.454Z,6.10
2023-02-22T02:50:24.992Z,6.08
2023-02-22T02:52:56.544Z,6.09
2023-02-22T02:55:28.065Z,6.07
2023-02-22T02:58:00.305Z,6.06
2023-02-22T03:00:32.139Z,6.06
2023-02-22T03:03:03.653Z,6.06
2023-02-22T03:05:35.591Z,6.06
2023-02-22T03:08:07.798Z,6.06
2023-02-22T03:10:39.827Z,6.12
2023-02-22T03:13:11.734Z,6.13
2023-02-22T03:15:43.588Z,6.14
2023-02-22T03:18:17.685Z,6.13
2023-02-22T03:20:49.222Z,6.10
2023-02-22T03:23:20.726Z,6.14
2023-02-22T03:25:52.583Z,6.16
2023-02-22T03:28:26.296Z,6.17
2023-02-22T03:30:57.826Z,6.20
2023-02-22T03:33:33.830Z,6.22
2023-02-22T03:36:05.330Z,6.17
2023-02-22T03:38:37.461Z,6.22
2023-02-22T03:41:09.012Z,6.21
2023-02-22T03:43:40.778Z,6.24
2023-02-22T03:46:12.311Z,6.24
2023-02-22T03:48:47.023Z,6.23
2023-02-22T03:51:18.829Z,6.24
2023-02-22T03:53:50.715Z,6.21
2023-02-22T03:56:22.231Z,6.24
2023-02-22T03:58:54.052Z,6.25
2023-02-22T04:01:25.619Z,6.26
2023-02-22T04:03:57.475Z,6.27
2023-02-22T04:06:29.030Z,6.23
2023-02-22T04:09:00.871Z,6.24
2023-02-22T04:11:32.433Z,6.33
2023-02-22T04:14:04.402Z,6.42
2023-02-22T04:16:35.918Z,6.43
2023-02-22T04:19:07.835Z,6.40
2023-02-22T04:21:39.387Z,6.47
2023-02-22T04:24:12.004Z,6.47
2023-02-22T04:26:43.575Z,6.37
2023-02-22T04:29:15.216Z,6.35
2023-02-22T04:31:46.723Z,6.25
2023-02-22T04:34:18.546Z,6.28
2023-02-22T04:36:50.023Z,6.28
2023-02-22T04:39:21.778Z,6.34
2023-02-22T04:41:53.472Z,6.35
2023-02-22T04:44:24.974Z,6.36
2023-02-22T04:46:57.500Z,6.36
2023-02-22T04:49:29.088Z,6.38
2023-02-22T04:52:00.601Z,6.43
2023-02-22T04:54:32.157Z,6.43
2023-02-22T04:57:03.702Z,6.48
2023-02-22T04:59:35.369Z,6.56
2023-02-22T05:02:06.925Z,6.57
2023-02-22T05:04:38.717Z,6.51
2023-02-22T05:07:10.268Z,6.53
2023-02-22T05:09:42.138Z,6.51
2023-02-22T05:12:13.687Z,6.50
2023-02-22T05:14:45.183Z,6.49
2023-02-22T05:17:16.720Z,6.51
2023-02-22T05:19:48.549Z,6.52
2023-02-22T05:22:20.029Z,6.59
2023-02-22T05:24:54.928Z,6.58
2023-02-22T05:27:26.422Z,6.56
2023-02-22T05:29:58.210Z,6.58
2023-02-22T05:32:29.699Z,6.57
2023-02-22T05:35:01.527Z,6.59
2023-02-22T05:37:33.080Z,6.59
2023-02-22T05:40:04.835Z,6.59
2023-02-22T05:42:36.324Z,6.63
2023-02-22T05:45:08.110Z,6.62
2023-02-22T05:47:39.595Z,6.60
2023-02-22T05:50:11.424Z,6.59
2023-02-22T05:52:42.907Z,6.67
2023-02-22T05:55:14.741Z,6.74
2023-02-22T05:57:46.250Z,6.78
2023-02-22T06:00:18.064Z,6.77
2023-02-22T06:02:49.536Z,6.76
2023-02-22T06:05:21.386Z,6.79
2023-02-22T06:07:53.776Z,6.83
2023-02-22T06:10:25.364Z,6.86
2023-02-22T06:12:56.850Z,6.85
2023-02-22T06:15:28.374Z,6.81
2023-02-22T06:18:00.146Z,6.84
2023-02-22T06:20:33.628Z,6.85
2023-02-22T06:23:05.115Z,6.93
2023-02-22T06:25:37.026Z,6.96
2023-02-22T06:28:08.571Z,6.93
2023-02-22T06:30:41.190Z,6.94
2023-02-22T06:33:12.685Z,6.95
2023-02-22T06:35:45.174Z,6.94
2023-02-22T06:38:16.643Z,6.99
2023-02-22T06:40:48.416Z,7.03
2023-02-22T06:43:19.989Z,7.06
2023-02-22T06:45:51.912Z,7.12
2023-02-22T06:48:23.403Z,7.13
2023-02-22T06:50:54.887Z,7.15
2023-02-22T06:53:26.387Z,7.07
2023-02-22T06:55:58.239Z,7.12
2023-02-22T06:58:29.720Z,7.06
2023-02-22T07:01:03.822Z,7.05
2023-02-22T07:03:35.824Z,7.14
2023-02-22T07:06:07.616Z,7.26
2023-02-22T07:08:39.120Z,7.35
2023-02-22T07:11:10.624Z,7.39
2023-02-22T07:13:42.081Z,7.44
2023-02-22T07:16:14.105Z,7.51
2023-02-22T07:18:45.624Z,7.48
2023-02-22T07:21:19.386Z,7.63
2023-02-22T07:23:50.964Z,7.67
2023-02-22T07:26:22.773Z,7.68
2023-02-22T07:28:54.266Z,7.68
2023-02-22T07:31:26.400Z,7.69
2023-02-22T07:33:58.778Z,7.78
2023-02-22T07:36:30.283Z,7.76
2023-02-22T07:39:01.758Z,7.85
2023-02-22T07:41:33.627Z,7.90
2023-02-22T07:44:05.146Z,7.96
2023-02-22T07:46:36.851Z,8.08
2023-02-22T07:49:08.400Z,8.16
2023-02-22T07:51:40.230Z,8.15
2023-02-22T07:54:11.718Z,8.10
2023-02-22T07:56:43.506Z,8.16
2023-02-22T07:59:15.042Z,8.12
2023-02-22T08:01:46.882Z,8.20
2023-02-22T08:04:18.343Z,8.16
2023-02-22T08:06:50.614Z,8.19
2023-02-22T08:09:23.600Z,8.31
2023-02-22T08:11:55.402Z,8.07
2023-02-22T08:14:26.893Z,8.39
2023-02-22T08:16:58.679Z,8.54
2023-02-22T08:19:30.189Z,8.45
2023-02-22T08:22:02.000Z,8.67
2023-02-22T08:24:33.475Z,8.66
2023-02-22T08:27:05.311Z,8.72
2023-02-22T08:29:36.819Z,8.48
2023-02-22T08:32:08.801Z,8.56
2023-02-22T08:34:40.372Z,8.67
2023-02-22T08:37:12.300Z,8.67
2023-02-22T08:39:43.794Z,8.70
2023-02-22T08:42:15.628Z,8.62
2023-02-22T08:44:48.547Z,8.63
2023-02-22T08:47:20.413Z,8.86
2023-02-22T08:49:51.951Z,8.71
2023-02-22T08:52:23.460Z,8.82
2023-02-22T08:54:55.681Z,8.73
2023-02-22T08:57:27.171Z,8.82
2023-02-22T08:59:58.679Z,8.97
2023-02-22T09:02:30.182Z,8.95
2023-02-22T09:05:01.677Z,9.06
2023-02-22T09:07:33.164Z,9.16
2023-02-22T09:10:04.653Z,9.26
2023-02-22T09:12:36.394Z,9.29
2023-02-22T09:15:07.871Z,9.11
2023-02-22T09:17:39.605Z,9.02
2023-02-22T09:20:12.346Z,8.95
2023-02-22T09:22:43.880Z,9.04
2023-02-22T09:25:17.278Z,9.15
2023-02-22T09:27:49.056Z,9.37
2023-02-22T09:30:20.876Z,9.63
2023-02-22T09:32:52.637Z,9.65
2023-02-22T09:35:27.707Z,9.72
2023-02-22T09:37:59.245Z,9.80
2023-02-22T09:40:30.775Z,9.62
2023-02-22T09:43:02.368Z,9.84
2023-02-22T09:45:36.976Z,10.04
2023-02-22T09:48:21.167Z,10.06
2023-02-22T09:50:53.594Z,10.17
2023-02-22T09:53:31.265Z,10.34
2023-02-22T09:56:03.713Z,10.59
2023-02-22T09:58:35.276Z,10.69
2023-02-22T10:01:07.304Z,10.33
2023-02-22T10:03:38.810Z,10.20
2023-02-22T10:06:10.497Z,10.51
2023-02-22T10:08:42.005Z,10.72
2023-02-22T10:11:16.334Z,10.84
2023-02-22T10:13:48.724Z,10.74
2023-02-22T10:16:21.100Z,10.54
2023-02-22T10:18:55.119Z,10.65
2023-02-22T10:21:26.694Z,10.68
2023-02-22T10:23:58.194Z,10.55
2023-02-22T10:26:29.759Z,10.53
2023-02-22T10:29:01.268Z,10.80
2023-02-22T10:31:35.966Z,10.72
2023-02-22T10:34:07.474Z,10.75
2023-02-22T10:36:39.566Z,10.56
2023-02-22T10:39:11.076Z,10.39
2023-02-22T10:41:42.921Z,10.24
2023-02-22T10:44:15.350Z,10.63
2023-02-22T10:46:47.044Z,10.80
2023-02-22T10:49:18.562Z,10.70
2023-02-22T10:51:50.066Z,10.54
2023-02-22T10:54:21.556Z,10.50
2023-02-22T10:56:54.181Z,10.56
2023-02-22T10:59:27.014Z,10.67
2023-02-22T11:01:59.077Z,10.54
2023-02-22T11:04:30.617Z,10.31
2023-02-22T11:07:04.671Z,10.24
2023-02-22T11:09:36.154Z,10.31
2023-02-22T11:12:07.875Z,10.25
2023-02-22T11:14:39.389Z,10.44
2023-02-22T11:17:13.206Z,10.52
2023-02-22T11:19:44.707Z,10.60
2023-02-22T11:22:16.508Z,10.50
2023-02-22T11:24:50.555Z,10.44
2023-02-22T11:27:22.293Z,10.32
2023-02-22T11:29:53.836Z,10.52
2023-02-22T11:32:25.582Z,10.84
2023-02-22T11:35:08.659Z,10.76
2023-02-22T11:37:40.672Z,10.77
2023-02-22T11:40:12.214Z,10.74
2023-02-22T11:42:44.042Z,10.60
2023-02-22T11:45:15.670Z,10.76
2023-02-22T11:47:47.561Z,10.60
2023-02-22T11:50:19.047Z,10.85
2023-02-22T11:52:50.915Z,11.00
2023-02-22T11:55:36.499Z,10.87
2023-02-22T11:58:13.867Z,10.49
2023-02-22T12:00:45.400Z,10.45
2023-02-22T12:03:16.918Z,10.55
2023-02-22T12:05:59.848Z,10.55
2023-02-22T12:08:31.473Z,10.70
2023-02-22T12:11:03.785Z,10.70
2023-02-22T12:13:36.712Z,10.53
2023-02-22T12:16:08.538Z,10.39
2023-02-22T12:18:40.139Z,10.56
2023-02-22T12:21:12.059Z,11.00
2023-02-22T12:23:44.880Z,10.92
2023-02-22T12:26:17.310Z,10.90
2023-02-22T12:28:48.991Z,10.99
2023-02-22T12:31:20.999Z,11.06
2023-02-22T12:33:52.551Z,11.06
2023-02-22T12:36:24.096Z,11.03
2023-02-22T12:38:55.721Z,11.02
2023-02-22T12:41:27.266Z,10.87
2023-02-22T12:43:58.830Z,10.93
2023-02-22T12:46:30.564Z,10.85
2023-02-22T12:49:02.330Z,11.09
2023-02-22T12:51:34.282Z,10.97
2023-02-22T12:54:05.980Z,10.67
2023-02-22T12:56:37.760Z,10.45
2023-02-22T12:59:09.317Z,10.58
2023-02-22T13:01:41.081Z,10.60
2023-02-22T13:04:20.600Z,10.73
2023-02-22T13:06:53.842Z,10.99
2023-02-22T13:09:26.695Z,11.06
2023-02-22T13:11:58.500Z,11.13
2023-02-22T13:14:30.119Z,11.28
2023-02-22T13:17:01.660Z,11.02
2023-02-22T13:19:33.146Z,10.85
2023-02-22T13:22:05.042Z,10.79
2023-02-22T13:24:38.403Z,10.71
2023-02-22T13:27:10.833Z,10.64
2023-02-22T13:29:42.353Z,10.67
2023-02-22T13:32:14.180Z,10.87
2023-02-22T13:34:45.707Z,10.75
2023-02-22T13:37:17.776Z,11.00
2023-02-22T13:39:54.566Z,10.80
2023-02-22T13:42:26.177Z,10.59
2023-02-22T13:44:59.633Z,10.77
2023-02-22T13:47:31.196Z,10.93
2023-02-22T13:50:02.751Z,10.97
2023-02-22T13:52:34.583Z,10.94
2023-02-22T13:55:10.820Z,10.87
2023-02-22T13:57:48.775Z,10.76
2023-02-22T14:00:23.489Z,10.55
2023-02-22T14:02:55.128Z,10.68
2023-02-22T14:05:28.936Z,10.58
2023-02-22T14:08:02.095Z,10.56
2023-02-22T14:10:33.633Z,10.62
2023-02-22T14:13:05.232Z,10.44
2023-02-22T14:15:36.713Z,10.71
2023-02-22T14:18:08.230Z,10.55
2023-02-22T14:20:40.378Z,10.54
2023-02-22T14:23:12.529Z,10.81
2023-02-22T14:25:44.119Z,10.57
2023-02-22T14:28:15.970Z,10.47
2023-02-22T14:30:47.460Z,10.36
2023-02-22T14:33:18.962Z,10.32
2023-02-22T14:35:50.530Z,10.51
2023-02-22T14:38:22.373Z,10.49
2023-02-22T14:40:53.889Z,10.46
2023-02-22T14:43:25.469Z,10.51
2023-02-22T14:45:57.116Z,10.29
2023-02-22T14:48:28.726Z,10.33
2023-02-22T14:51:05.866Z,10.11
2023-02-22T14:53:44.533Z,10.04
2023-02-22T14:56:16.056Z,10.06
2023-02-22T14:58:48.268Z,9.98
2023-02-22T15:01:20.527Z,9.95
2023-02-22T15:04:07.319Z,9.90
2023-02-22T15:06:39.718Z,9.93
2023-02-22T15:09:11.589Z,10.01
2023-02-22T15:11:45.549Z,9.98
2023-02-22T15:14:25.712Z,9.96
2023-02-22T15:16:57.691Z,10.06
2023-02-22T15:19:29.232Z,10.02
2023-02-22T15:22:00.725Z,9.86
2023-02-22T15:24:32.653Z,9.80
2023-02-22T15:27:06.008Z,9.85
2023-02-22T15:35:42.608Z,9.74
2023-02-22T15:38:14.617Z,9.72
2023-02-22T15:40:50.581Z,9.64
2023-02-22T15:43:25.197Z,9.51
2023-02-22T15:45:56.805Z,9.41
2023-02-22T15:48:28.533Z,9.46
2023-02-22T15:51:00.120Z,9.39
2023-02-22T15:53:31.747Z,9.43
2023-02-22T15:56:03.252Z,9.32
2023-02-22T15:58:34.971Z,9.22
2023-02-22T16:01:06.681Z,9.22
2023-02-22T16:03:44.827Z,9.21
2023-02-22T16:06:17.682Z,9.22
2023-02-22T16:08:55.103Z,9.15
2023-02-22T16:11:30.081Z,9.07
2023-02-22T16:14:01.835Z,8.95
2023-02-22T16:16:33.410Z,8.92
2023-02-22T16:19:05.051Z,8.95
2023-02-22T16:21:36.585Z,8.91
2023-02-22T16:24:15.302Z,8.81
2023-02-22T16:26:47.254Z,8.79
2023-02-22T16:29:19.172Z,8.77
2023-02-22T16:31:50.912Z,8.71
2023-02-22T16:34:22.595Z,8.61
2023-02-22T16:36:55.583Z,8.59
2023-02-22T16:39:27.247Z,8.55
2023-02-22T16:41:58.829Z,8.41
2023-02-22T16:44:30.419Z,8.33
2023-02-22T16:47:01.973Z,8.29
2023-02-22T16:49:33.747Z,8.23
2023-02-22T16:52:06.593Z,8.24
2023-02-22T16:54:38.188Z,8.19
2023-02-22T16:57:12.753Z,8.19
2023-02-22T16:59:44.338Z,8.12
2023-02-22T17:02:15.984Z,8.12
2023-02-22T17:04:49.475Z,8.03
2023-02-22T17:07:23.482Z,8.01
2023-02-22T17:09:58.409Z,7.95
2023-02-22T17:12:30.014Z,7.93
2023-02-22T17:15:03.866Z,7.88
2023-02-22T17:17:35.803Z,7.83
2023-02-22T17:20:11.547Z,7.83
2023-02-22T17:22:43.353Z,7.76
2023-02-22T17:25:15.829Z,7.75
2023-02-22T17:27:47.690Z,7.71
2023-02-22T17:30:23.007Z,7.70
2023-02-22T17:33:03.841Z,7.65
2023-02-22T17:35:36.960Z,7.60
2023-02-22T17:38:09.934Z,7.56
2023-02-22T17:40:41.465Z,7.51
2023-02-22T17:43:13.406Z,7.50
2023-02-22T17:45:46.024Z,7.46
2023-02-22T17:48:17.887Z,7.47
2023-02-22T17:50:49.581Z,7.41
2023-02-22T17:53:22.782Z,7.35
2023-02-22T17:55:54.370Z,7.32
2023-02-22T17:58:30.869Z,7.28
2023-02-22T18:01:02.431Z,7.27
2023-02-22T18:03:34.250Z,7.29
2023-02-22T18:06:05.963Z,7.24
2023-02-22T18:08:39.330Z,7.21
2023-02-22T18:11:10.831Z,7.18
2023-02-22T18:13:42.461Z,7.12
2023-02-22T18:16:16.169Z,7.10
2023-02-22T18:18:49.456Z,7.11
2023-02-22T18:21:21.263Z,7.11
2023-02-22T18:23:54.161Z,7.15
2023-02-22T18:26:26.057Z,7.11
2023-02-22T18:28:57.699Z,7.05
2023-02-22T18:31:29.342Z,7.01
2023-02-22T18:34:01.267Z,6.98
2023-02-22T18:36:32.754Z,6.96
2023-02-22T18:39:05.431Z,6.92
2023-02-22T18:41:36.975Z,6.92
2023-02-22T18:44:11.578Z,6.92
2023-02-22T18:46:45.901Z,6.90
2023-02-22T18:49:17.397Z,6.87
2023-02-22T18:51:48.872Z,6.85
2023-02-22T18:54:20.471Z,6.85
2023-02-22T18:56:51.964Z,6.81
2023-02-22T18:59:23.437Z,6.78
2023-02-22T19:01:54.921Z,6.75
2023-02-22T19:04:26.560Z,6.71
2023-02-22T19:06:58.051Z,6.65
2023-02-22T19:09:29.535Z,6.64
2023-02-22T19:12:01.086Z,6.61
2023-02-22T19:14:32.661Z,6.61
2023-02-22T19:17:07.404Z,6.54
2023-02-22T19:19:38.980Z,6.52
2023-02-22T19:22:10.464Z,6.52
2023-02-22T19:24:41.985Z,6.53
2023-02-22T19:27:13.466Z,6.50
2023-02-22T19:29:44.954Z,6.47
2023-02-22T19:32:17.555Z,6.47
2023-02-22T19:34:50.456Z,6.43
2023-02-22T19:37:22.639Z,6.41
2023-02-22T19:39:54.218Z,6.37
2023-02-22T19:42:26.005Z,6.34
2023-02-22T19:44:58.266Z,6.32
2023-02-22T19:47:29.804Z,6.26
2023-02-22T19:50:01.691Z,6.24
2023-02-22T19:52:33.179Z,6.21
2023-02-22T19:55:06.506Z,6.18
2023-02-22T19:57:38.637Z,6.16
2023-02-22T20:00:11.643Z,6.12
2023-02-22T20:02:43.320Z,6.11
2023-02-22T20:05:16.775Z,6.14
2023-02-22T20:07:48.510Z,6.11
2023-02-22T20:10:20.301Z,6.11
2023-02-22T20:12:51.835Z,6.11
2023-02-22T20:15:23.978Z,6.13
2023-02-22T20:17:55.556Z,6.09
2023-02-22T20:20:28.938Z,6.14
2023-02-22T20:23:01.807Z,6.11
2023-02-22T20:25:35.632Z,6.14
2023-02-22T20:28:07.847Z,6.14
2023-02-22T20:30:39.690Z,6.11
2023-02-22T20:33:13.542Z,6.09
2023-02-22T20:35:46.543Z,6.03
2023-02-22T20:38:19.263Z,6.00
2023-02-22T20:40:51.109Z,5.95
2023-02-22T20:43:23.145Z,5.98
2023-02-22T20:45:56.096Z,5.92
2023-02-22T20:48:27.578Z,5.89
2023-02-22T20:50:59.447Z,5.86
2023-02-22T20:53:30.949Z,5.80
2023-02-22T20:56:02.869Z,5.78
2023-02-22T20:58:34.745Z,5.82
2023-02-22T21:01:06.610Z,5.85
2023-02-22T21:03:38.098Z,5.87
2023-02-22T21:06:09.827Z,5.90
2023-02-22T21:08:41.727Z,5.92
2023-02-22T21:11:13.573Z,5.83
2023-02-22T21:13:45.105Z,5.84
2023-02-22T21:16:16.955Z,5.78
2023-02-22T21:18:48.463Z,5.74
2023-02-22T21:21:20.178Z,5.72
2023-02-22T21:23:51.955Z,5.74
2023-02-22T21:26:23.653Z,5.66
2023-02-22T21:28:55.531Z,5.58
2023-02-22T21:31:27.157Z,5.58
2023-02-22T21:33:58.984Z,5.54
2023-02-22T21:36:31.837Z,5.47
2023-02-22T21:39:09.185Z,5.43
2023-02-22T21:41:41.049Z,5.43
2023-02-22T21:44:12.842Z,5.40
2023-02-22T21:49:23.303Z,5.28
2023-02-22T21:51:54.839Z,5.30
2023-02-22T21:54:27.955Z,5.30
2023-02-22T21:56:59.843Z,5.28
2023-02-22T21:59:31.636Z,5.25
2023-02-22T22:02:03.705Z,5.22
2023-02-22T22:04:35.191Z,5.22
2023-02-22T22:07:06.693Z,5.18
2023-02-22T22:09:41.591Z,5.14
2023-02-22T22:12:14.120Z,5.18
2023-02-22T22:14:45.974Z,5.14
2023-02-22T22:17:17.528Z,5.09
2023-02-22T22:19:49.266Z,5.08
2023-02-22T22:22:20.771Z,5.09
2023-02-22T22:24:54.152Z,5.08
2023-02-22T22:27:25.670Z,5.09
2023-02-22T22:29:59.768Z,5.05
2023-02-22T22:32:31.292Z,4.98
2023-02-22T22:35:06.190Z,4.96
2023-02-22T22:37:39.350Z,4.93
2023-02-22T22:40:15.863Z,4.94
2023-02-22T22:42:48.010Z,4.92
2023-02-22T22:45:19.664Z,4.91
2023-02-22T22:47:52.163Z,4.90
2023-02-22T22:50:26.465Z,4.87
2023-02-22T22:52:58.226Z,4.86
2023-02-22T22:55:29.888Z,4.80
2023-02-22T22:58:01.948Z,4.82
2023-02-22T23:00:37.804Z,4.76
2023-02-22T23:03:09.536Z,4.78
2023-02-22T23:05:45.894Z,4.75
2023-02-22T23:08:18.413Z,4.74
2023-02-22T23:10:50.301Z,4.73
2023-02-22T23:13:21.895Z,4.72
2023-02-22T23:15:55.045Z,4.70
2023-02-22T23:18:26.538Z,4.68
2023-02-22T23:20:58.377Z,4.63
2023-02-22T23:23:29.986Z,4.64
2023-02-22T23:26:01.840Z,4.64
2023-02-22T23:28:33.319Z,4.64
2023-02-22T23:31:05.205Z,4.61
2023-02-22T23:33:38.257Z,4.64
2023-02-22T23:36:11.439Z,4.61
2023-02-22T23:38:42.941Z,4.59
2023-02-22T23:41:16.724Z,4.58
2023-02-22T23:43:48.433Z,4.54
2023-02-22T23:46:20.243Z,4.57
2023-02-22T23:48:51.839Z,4.55
2023-02-22T23:51:26.235Z,4.53
2023-02-22T23:53:57.733Z,4.53
2023-02-22T23:56:30.787Z,4.52
2023-02-22T23:59:08.075Z,4.49
